Pond Bank, Pennsylvania
Current Conditions -  °F | °C
As of 5:53 PM on Wednesday 22 Oct 2014 (Local Time) from KHGR Reporting Station
Overcast Overcast  
Wind Chill: 56°   Ceiling: 3500
Heat Index: 56°   Visibility: 10mi
Dew Point: 44°   Wind: 15mph
Humidity: 64%   Direction: 330°NNW
Pressure: 29.98"   Gusts: NA
Location:  39.9438°N, 77.6827°W
Report Text: KHGR 222153Z 33013KT 10SM OVC035 13/07 A2998 RMK AO2 SLP161 T01330067
Loading
Personal Weather Stations






























Interactive Weather Map
Tropical Storm Tracking
New forecast layout! Learn more

10-Day Weather Forecast

Advertisements
Track Severe Weather on mobile